Time;durP1;ratioP1;P1;durP2;ratioP2;P2;SDS_P1;SDS_P2;PMS_P1;PMS_P2;Temp;Humidity;BMP_temperature;BMP_pressure;BME280_temperature;BME280_humidity;BME280_pressure;Samples;Min_cycle;Max_cycle;Signal;HPM_P1;HPM_P2
2022/08/06 00:02:53;;;;;;;4.70;4.50;;;;;;;12.90;96.08;102163.50;6062906;23;20019;-75
2022/08/06 00:05:23;;;;;;;4.78;4.57;;;;;;;12.87;96.33;102169.75;6092791;23;20341;-76
2022/08/06 00:08:01;;;;;;;4.75;4.55;;;;;;;11.62;96.49;101983.94;6050424;23;20042;-76
2022/08/06 00:12:57;;;;;;;5.93;5.65;;;;;;;8.96;96.26;101549.47;6068000;23;20010;-76
2022/08/06 00:15:24;;;;;;;4.70;4.50;;;;;;;12.27;96.45;102077.19;6089794;23;20037;-76
2022/08/06 00:18:10;;;;;;;6.57;6.28;;;;;;;12.25;97.08;102092.19;6072002;23;20026;-76
2022/08/06 00:20:38;;;;;;;4.97;4.78;;;;;;;12.09;97.01;102076.09;6088328;23;20020;-78
2022/08/06 00:23:09;;;;;;;4.70;4.50;;;;;;;12.57;97.64;102161.25;6088503;23;20092;-78
2022/08/06 00:25:43;;;;;;;5.70;5.50;;;;;;;11.25;98.04;101979.13;6090027;23;20047;-78
2022/08/06 00:28:17;;;;;;;4.90;4.70;;;;;;;12.52;98.34;102173.69;6095429;23;20019;-76
2022/08/06 00:30:45;;;;;;;5.93;5.63;;;;;;;10.92;98.10;101919.78;6083106;23;20404;-76
2022/08/06 00:33:12;;;;;;;4.90;4.70;;;;;;;12.09;99.39;102109.47;6078210;23;20396;-76
2022/08/06 00:35:42;;;;;;;5.38;5.18;;;;;;;11.78;99.68;102061.38;6088093;23;20090;-76
2022/08/06 00:38:12;;;;;;;5.00;4.80;;;;;;;12.41;99.27;102160.06;6040016;23;20034;-76
2022/08/06 00:40:41;;;;;;;5.25;5.05;;;;;;;11.91;100.00;102085.50;6082741;23;20498;-78
2022/08/06 00:43:24;;;;;;;4.75;4.55;;;;;;;11.62;100.00;102048.81;6077735;23;20026;-77
2022/08/06 00:45:51;;;;;;;5.53;5.32;;;;;;;12.35;100.00;102182.22;6064144;23;20247;-77
2022/08/06 00:48:21;;;;;;;4.63;4.43;;;;;;;11.48;100.00;102036.16;6084259;23;20026;-77
2022/08/06 00:51:07;;;;;;;4.80;4.60;;;;;;;11.00;100.00;101977.31;6088631;23;20182;-77
2022/08/06 00:53:44;;;;;;;5.65;5.45;;;;;;;11.89;100.00;102116.28;6086067;23;20014;-77
2022/08/06 00:56:14;;;;;;;5.30;5.00;;;;;;;12.21;100.00;102193.25;6076239;23;20073;-78
2022/08/06 00:58:40;;;;;;;5.38;5.18;;;;;;;12.26;100.00;102182.53;6081582;23;20107;-78
2022/08/06 01:01:11;;;;;;;4.80;4.60;;;;;;;11.29;100.00;102036.78;6063031;23;20017;-78
2022/08/06 01:03:47;;;;;;;5.88;5.57;;;;;;;10.42;100.00;101897.84;6070240;23;20544;-78
2022/08/06 01:06:17;;;;;;;4.75;4.55;;;;;;;10.64;100.00;101982.00;6081754;23;20265;-77
2022/08/06 01:09:04;;;;;;;4.70;4.50;;;;;;;10.82;100.00;101993.69;6086226;23;20030;-78
2022/08/06 01:11:33;;;;;;;4.90;4.70;;;;;;;11.55;100.00;102098.16;6085007;23;20435;-77
2022/08/06 01:14:01;;;;;;;5.13;4.93;;;;;;;9.63;100.00;101787.50;6087014;23;20037;-77
2022/08/06 01:16:49;;;;;;;4.82;4.63;;;;;;;10.74;100.00;101975.56;6082336;23;20077;-77
2022/08/06 01:19:24;;;;;;;6.22;5.93;;;;;;;11.98;100.00;102194.88;6076696;23;20017;-77
2022/08/06 01:22:35;;;;;;;4.75;4.55;;;;;;;11.03;100.00;102055.19;6083097;23;20010;-77
2022/08/06 01:25:24;;;;;;;4.63;4.43;;;;;;;11.87;100.00;102199.63;6079973;23;20011;-77
2022/08/06 01:28:20;;;;;;;4.38;4.18;;;;;;;11.67;100.00;102197.66;6057191;23;20128;-77
2022/08/06 01:30:57;;;;;;;;;;;;;;;11.80;100.00;102199.88;6085018;23;20080;-77
2022/08/06 01:33:35;;;;;;;4.70;4.50;;;;;;;10.33;100.00;101975.09;6092781;23;20334;-77
2022/08/06 01:36:10;;;;;;;4.45;4.25;;;;;;;11.21;100.00;102117.66;6066113;23;20038;-77
2022/08/06 01:38:42;;;;;;;4.72;4.53;;;;;;;10.42;100.00;102006.28;6090954;23;20014;-77
2022/08/06 01:41:38;;;;;;;4.70;4.50;;;;;;;11.66;100.00;102208.22;6087276;23;20019;-78
2022/08/06 01:44:28;;;;;;;4.68;4.47;;;;;;;10.17;100.00;101967.66;6093930;23;20470;-77
2022/08/06 01:46:56;;;;;;;;;;;;;;;11.63;100.00;102216.22;6063725;23;20092;-78
2022/08/06 01:49:27;;;;;;;4.55;4.35;;;;;;;11.61;100.00;102215.41;6086123;23;19921;-78
2022/08/06 01:52:16;;;;;;;4.65;4.45;;;;;;;11.59;100.00;102215.44;6101034;23;20014;-77
2022/08/06 01:54:58;;;;;;;5.32;5.13;;;;;;;10.12;100.00;101973.94;6077920;23;20026;-78
2022/08/06 01:57:29;;;;;;;4.80;4.60;;;;;;;11.53;100.00;102221.75;6092433;23;20495;-78
2022/08/06 02:00:16;;;;;;;4.53;4.32;;;;;;;10.80;100.00;102114.53;6061326;23;20022;-78
2022/08/06 02:02:46;;;;;;;5.00;4.80;;;;;;;11.02;100.00;102153.28;6061028;23;20089;-78
2022/08/06 02:05:19;;;;;;;5.10;4.80;;;;;;;11.42;100.00;102215.97;6077412;23;20025;-78
2022/08/06 02:07:50;;;;;;;5.40;5.20;;;;;;;8.63;100.00;101779.88;6066552;23;20006;-77
2022/08/06 02:10:37;;;;;;;4.50;4.30;;;;;;;10.41;100.00;102080.69;6077472;23;20329;-77
2022/08/06 02:13:10;;;;;;;4.70;4.50;;;;;;;11.28;100.00;102250.56;6053595;23;20039;-77
2022/08/06 02:15:42;;;;;;;4.97;4.78;;;;;;;11.21;100.00;102222.75;6092310;23;20530;-77
2022/08/06 02:18:28;;;;;;;4.80;4.60;;;;;;;11.26;100.00;102225.25;6056744;23;20006;-77
2022/08/06 02:21:06;;;;;;;4.85;4.65;;;;;;;11.21;100.00;102222.75;6086603;23;20121;-77
2022/08/06 02:23:44;;;;;;;4.57;4.38;;;;;;;11.17;100.00;102224.63;6072443;23;20361;-77
2022/08/06 02:26:14;;;;;;;4.40;4.20;;;;;;;10.00;100.00;102040.72;6082483;23;20049;-77
2022/08/06 02:28:43;;;;;;;5.07;4.88;;;;;;;10.98;100.00;102198.06;6075791;23;20097;-77
2022/08/06 02:31:16;;;;;;;4.68;4.47;;;;;;;10.24;100.00;102081.13;6085282;23;20074;-77
2022/08/06 02:33:46;;;;;;;5.47;5.28;;;;;;;10.26;100.00;102095.06;6089762;23;20072;-77
2022/08/06 02:36:35;;;;;;;5.70;4.40;;;;;;;11.16;100.00;102230.78;6076057;23;20095;-78
2022/08/06 02:39:22;;;;;;;;;;;;;;;11.15;100.00;102233.47;6058424;23;20155;-76
2022/08/06 02:42:14;;;;;;;4.32;4.13;;;;;;;11.07;100.00;102231.06;6082719;23;20432;-75
2022/08/06 02:44:59;;;;;;;4.65;4.45;;;;;;;10.97;100.00;102211.22;6087819;23;20041;-76
2022/08/06 02:47:44;;;;;;;4.60;4.40;;;;;;;11.03;100.00;102233.84;6081210;23;20014;-76
2022/08/06 02:50:40;;;;;;;4.80;4.60;;;;;;;10.68;100.00;102197.16;6069324;23;20059;-75
2022/08/06 02:53:10;;;;;;;4.45;4.25;;;;;;;9.77;100.00;102044.00;6084692;23;20177;-76
2022/08/06 02:55:55;;;;;;;5.22;5.03;;;;;;;9.94;100.00;102088.09;6053917;23;20021;-77
2022/08/06 02:58:39;;;;;;;4.60;4.40;;;;;;;9.73;100.00;102058.94;6087703;23;20026;-77
2022/08/06 03:01:27;;;;;;;4.40;4.20;;;;;;;10.73;100.00;102213.66;6058046;23;20202;-76
2022/08/06 03:03:58;;;;;;;5.15;4.95;;;;;;;10.48;100.00;102174.09;6074408;23;20021;-78
2022/08/06 03:06:28;;;;;;;4.60;4.40;;;;;;;10.57;100.00;102202.72;6056723;23;20018;-77
2022/08/06 03:08:57;;;;;;;5.00;4.80;;;;;;;10.55;100.00;102186.16;6089795;23;20043;-78
2022/08/06 03:11:26;;;;;;;4.60;4.40;;;;;;;10.83;100.00;102251.00;6082723;23;20459;-76
2022/08/06 03:14:00;;;;;;;;;;;;;;;10.83;100.00;102260.66;6083904;23;20331;-76
2022/08/06 03:16:30;;;;;;;4.57;4.38;;;;;;;10.57;100.00;102194.84;6065834;23;19918;-76
2022/08/06 03:19:03;;;;;;;4.60;4.40;;;;;;;10.83;100.00;102237.03;6079841;23;20062;-75
2022/08/06 03:21:52;;;;;;;5.32;5.13;;;;;;;10.13;100.00;102130.44;6077153;23;20455;-76
2022/08/06 03:24:24;;;;;;;4.60;4.40;;;;;;;9.61;100.00;102053.19;6059648;23;20075;-76
2022/08/06 03:26:55;;;;;;;5.60;5.40;;;;;;;10.10;100.00;102130.50;6071944;23;20069;-78
2022/08/06 03:29:24;;;;;;;4.93;4.72;;;;;;;10.68;100.00;102248.81;6059686;23;20063;-76
2022/08/06 03:31:51;;;;;;;5.40;5.20;;;;;;;10.36;100.00;102184.94;6074228;23;20020;-76
2022/08/06 03:34:39;;;;;;;4.53;4.32;;;;;;;10.58;100.00;102232.44;6087959;23;20015;-78
2022/08/06 03:37:09;;;;;;;4.57;4.38;;;;;;;10.60;100.00;102253.41;6062591;23;20023;-76
2022/08/06 03:39:43;;;;;;;4.78;4.57;;;;;;;10.55;100.00;102256.16;6063357;23;20011;-76
2022/08/06 03:42:19;;;;;;;4.50;4.30;;;;;;;8.21;100.00;101892.50;6097288;23;20034;-76
2022/08/06 03:44:46;;;;;;;5.45;5.25;;;;;;;10.34;100.00;102226.97;6076249;23;20035;-78
2022/08/06 03:47:20;;;;;;;4.45;4.25;;;;;;;10.44;100.00;102253.81;6080969;23;20014;-76
2022/08/06 03:50:09;;;;;;;4.55;4.35;;;;;;;10.48;100.00;102259.84;6079732;23;20026;-78
2022/08/06 03:52:41;;;;;;;4.43;4.22;;;;;;;10.45;100.00;102257.31;6075565;23;20084;-76
2022/08/06 03:55:12;;;;;;;4.30;4.10;;;;;;;10.43;100.00;102259.97;6076076;23;20018;-76
2022/08/06 03:57:45;;;;;;;4.72;4.53;;;;;;;10.44;100.00;102263.47;6066405;23;20010;-77
2022/08/06 04:00:21;;;;;;;4.50;4.30;;;;;;;10.24;100.00;102233.31;6085052;23;20072;-76
2022/08/06 04:02:56;;;;;;;5.15;4.95;;;;;;;10.39;100.00;102258.34;6074834;23;20030;-76
2022/08/06 04:05:28;;;;;;;4.60;4.40;;;;;;;9.92;100.00;102182.56;6071098;23;20018;-77
2022/08/06 04:08:00;;;;;;;4.85;4.65;;;;;;;9.61;100.00;102151.00;6076220;23;20096;-79
2022/08/06 04:10:37;;;;;;;4.93;4.72;;;;;;;10.33;100.00;102262.00;6080213;23;20506;-80
2022/08/06 04:13:24;;;;;;;4.30;4.10;;;;;;;8.94;100.00;102031.25;6058945;23;20034;-80
2022/08/06 04:16:13;;;;;;;4.70;4.50;;;;;;;8.76;100.00;102014.22;6049514;23;20019;-80
2022/08/06 04:18:42;;;;;;;5.20;4.95;;;;;;;8.69;100.00;101964.69;6063736;23;20025;-81
2022/08/06 04:21:18;;;;;;;4.30;4.10;;;;;;;8.69;100.00;101936.75;6065252;23;20046;-81
2022/08/06 04:24:05;;;;;;;4.80;4.60;;;;;;;10.35;100.00;102131.59;6065171;23;20218;-80
2022/08/06 04:26:37;;;;;;;4.43;4.22;;;;;;;9.17;100.00;101864.81;6036686;23;20015;-78
2022/08/06 04:29:10;;;;;;;4.47;4.28;;;;;;;11.24;100.00;102167.47;6071174;23;20022;-78
2022/08/06 04:31:39;;;;;;;4.60;4.40;;;;;;;11.73;100.00;102167.66;6054656;23;20015;-78
2022/08/06 04:34:26;;;;;;;4.90;4.70;;;;;;;12.70;100.00;102254.66;6060858;23;20097;-79
2022/08/06 04:36:58;;;;;;;5.00;4.80;;;;;;;12.77;100.00;102200.84;6070906;23;20014;-79
2022/08/06 04:39:28;;;;;;;4.97;4.68;;;;;;;13.08;99.36;102188.28;6038459;23;20053;-79
2022/08/06 04:42:15;;;;;;;4.47;4.28;;;;;;;13.24;96.18;102130.53;6059392;23;20437;-80
2022/08/06 04:44:44;;;;;;;5.47;5.28;;;;;;;13.35;92.87;102075.66;6056829;23;20036;-81
2022/08/06 04:47:11;;;;;;;4.70;4.50;;;;;;;13.65;89.49;102078.75;6052848;23;20035;-82
2022/08/06 04:49:45;;;;;;;5.40;5.20;;;;;;;13.28;86.09;102048.63;6064395;23;20038;-81
2022/08/06 04:52:28;;;;;;;;;;;;;;;14.45;84.47;102244.25;6045918;23;20035;-79
2022/08/06 04:55:17;;;;;;;5.00;4.80;;;;;;;14.81;83.89;102222.41;6074354;23;19958;-79
2022/08/06 04:58:00;;;;;;;5.38;5.18;;;;;;;13.73;80.86;102031.78;6060366;23;20020;-80
2022/08/06 05:00:37;;;;;;;4.85;4.65;;;;;;;15.57;79.83;102238.22;6066094;23;20026;-80
2022/08/06 05:03:23;;;;;;;5.22;4.95;;;;;;;15.97;78.90;102232.81;6066467;23;20036;-81
2022/08/06 05:06:19;;;;;;;5.00;4.80;;;;;;;15.72;76.95;102072.53;6061189;23;20206;-80
2022/08/06 05:08:49;;;;;;;6.30;6.00;;;;;;;16.80;73.80;102168.34;6036080;23;20046;-79
2022/08/06 05:11:26;;;;;;;5.30;5.10;;;;;;;17.58;72.40;102228.59;6045939;23;20362;-80
2022/08/06 05:14:01;;;;;;;6.60;6.20;;;;;;;17.54;70.67;102178.34;6076839;23;20018;-80
2022/08/06 05:16:36;;;;;;;5.32;5.13;;;;;;;16.73;69.44;102095.41;6064174;23;20276;-78
2022/08/06 05:19:09;;;;;;;5.45;5.25;;;;;;;17.98;68.82;102228.97;6090856;23;20078;-78
2022/08/06 05:21:51;;;;;;;6.40;6.10;;;;;;;18.08;67.25;102203.56;6085702;23;20265;-81
2022/08/06 05:24:39;;;;;;;5.43;5.22;;;;;;;17.99;63.50;102193.50;6085970;23;20498;-78
2022/08/06 05:27:26;;;;;;;5.20;5.00;;;;;;;18.61;65.34;102241.13;6087742;23;20033;-81
2022/08/06 05:30:13;;;;;;;5.30;5.10;;;;;;;18.01;64.20;102122.53;6088145;23;20039;-80
2022/08/06 05:32:44;;;;;;;5.78;5.53;;;;;;;18.02;63.76;102254.41;6083280;23;20212;-80
2022/08/06 05:35:11;;;;;;;5.80;5.50;;;;;;;17.48;65.57;102072.53;6086418;23;20026;-80
2022/08/06 05:37:43;;;;;;;6.10;5.80;;;;;;;19.06;64.38;102255.19;6071402;23;20481;-82
2022/08/06 05:40:33;;;;;;;5.78;5.47;;;;;;;18.96;63.05;102142.31;6051379;23;20036;-81
2022/08/06 05:43:21;;;;;;;5.40;5.20;;;;;;;19.36;60.74;102148.53;6077308;23;20260;-80
2022/08/06 05:45:50;;;;;;;6.32;6.03;;;;;;;19.83;61.14;102186.31;6085835;23;20459;-80
2022/08/06 05:48:19;;;;;;;5.40;5.20;;;;;;;19.36;59.34;102148.53;6091667;23;20088;-79
2022/08/06 05:51:04;;;;;;;5.90;5.60;;;;;;;20.25;59.49;102229.66;6079029;23;20010;-79
2022/08/06 05:53:48;;;;;;;5.45;5.25;;;;;;;19.91;59.17;102155.53;6129990;18;20045;-73
2022/08/06 05:56:40;;;;;;;6.10;5.80;;;;;;;20.64;58.99;102230.50;6135226;23;20333;-74
2022/08/06 05:59:17;;;;;;;5.45;5.25;;;;;;;20.62;58.25;102230.63;6139918;23;20514;-74
2022/08/06 06:02:05;;;;;;;5.95;5.65;;;;;;;20.55;57.73;102232.00;6097210;23;20013;-72
2022/08/06 06:05:31;;;;;;;15.30;14.52;;;;;;;20.41;57.57;102152.97;6072399;23;20044;-74
2022/08/06 06:08:22;;;;;;;5.75;5.45;;;;;;;21.01;57.45;102227.91;6090329;23;20022;-73
2022/08/06 06:11:07;;;;;;;7.20;5.47;;;;;;;20.83;57.63;102227.41;6117216;23;20075;-72
2022/08/06 06:13:38;;;;;;;5.90;5.60;;;;;;;19.48;59.34;102174.38;6098520;23;20110;-75
2022/08/06 06:16:29;;;;;;;5.70;5.40;;;;;;;18.95;63.06;102285.16;6101849;23;20513;-74
2022/08/06 06:19:02;;;;;;;5.78;5.47;;;;;;;18.32;65.65;102297.78;6090712;23;20033;-73
2022/08/06 06:21:53;;;;;;;5.57;5.28;;;;;;;17.50;68.82;102255.56;6134950;18;20343;-74
2022/08/06 06:24:37;;;;;;;7.07;6.75;;;;;;;17.16;69.70;102230.97;6084235;23;20056;-74
2022/08/06 06:27:12;;;;;;;5.60;5.30;;;;;;;17.51;71.38;102302.44;6122973;23;20505;-73
2022/08/06 06:30:08;;;;;;;6.53;6.22;;;;;;;17.14;72.79;102307.97;6087592;23;20092;-73
2022/08/06 06:32:46;;;;;;;5.95;5.65;;;;;;;16.15;73.61;102149.75;6095023;23;20029;-74
2022/08/06 06:35:38;;;;;;;5.90;5.60;;;;;;;17.07;73.50;102293.31;6102064;23;20684;-74
2022/08/06 06:38:31;;;;;;;5.70;5.40;;;;;;;17.20;73.00;102311.22;6096273;23;20086;-74
2022/08/06 06:41:08;;;;;;;;;;;;;;;17.24;73.43;102310.97;6096180;23;20030;-72
2022/08/06 06:44:28;;;;;;;7.68;7.30;;;;;;;16.60;74.22;102190.66;6090620;23;19971;-72
2022/08/06 06:47:31;;;;;;;5.82;5.43;;;;;;;17.43;73.08;102324.06;6097937;23;20092;-74
2022/08/06 06:50:11;;;;;;;5.50;5.20;;;;;;;17.55;72.99;102311.94;6095974;23;20026;-75
2022/08/06 06:52:46;;;;;;;6.97;6.68;;;;;;;17.54;73.65;102328.81;6076086;23;20022;-74
2022/08/06 06:55:33;;;;;;;5.82;5.53;;;;;;;17.12;74.58;102324.91;6081598;23;20026;-75
2022/08/06 06:58:28;;;;;;;5.63;5.32;;;;;;;17.07;74.92;102305.72;6097633;23;20352;-74
2022/08/06 07:00:59;;;;;;;5.70;5.40;;;;;;;17.29;74.12;102316.88;6092656;23;20017;-74
2022/08/06 07:03:48;;;;;;;7.03;6.72;;;;;;;17.36;74.17;102328.03;6092152;23;20025;-74
2022/08/06 07:06:18;;;;;;;5.50;5.20;;;;;;;17.37;73.86;102326.22;6065838;23;20134;-75
2022/08/06 07:09:06;;;;;;;5.57;5.30;;;;;;;17.16;74.49;102294.63;6071186;23;20009;-74
2022/08/06 07:11:45;;;;;;;6.75;6.45;;;;;;;17.50;74.79;102337.84;6089335;23;20022;-75
2022/08/06 07:14:31;;;;;;;5.80;5.50;;;;;;;17.69;74.32;102329.75;6096924;23;20418;-75
2022/08/06 07:17:01;;;;;;;6.50;6.20;;;;;;;16.90;72.65;102168.75;6089188;23;20190;-77
2022/08/06 07:19:50;;;;;;;5.95;5.63;;;;;;;17.88;71.21;102340.19;6076828;23;20021;-74
2022/08/06 07:22:22;;;;;;;5.38;5.18;;;;;;;18.13;72.43;102331.69;6090757;23;20291;-77
2022/08/06 07:24:59;;;;;;;6.90;6.60;;;;;;;18.37;71.51;102325.88;6093720;23;20022;-75
2022/08/06 07:27:30;;;;;;;6.20;5.70;;;;;;;18.54;70.59;102331.03;6077488;23;20596;-76
2022/08/06 07:30:10;;;;;;;5.70;5.40;;;;;;;17.37;70.12;102205.00;6085450;23;20018;-74
2022/08/06 07:32:37;;;;;;;5.72;5.28;;;;;;;17.37;70.24;102170.50;6097140;23;20041;-75
2022/08/06 07:35:06;;;;;;;5.72;5.43;;;;;;;18.74;69.82;102335.16;6096295;23;20431;-75
2022/08/06 07:37:51;;;;;;;5.78;5.53;;;;;;;18.09;68.23;102163.63;6099988;23;20017;-75
2022/08/06 07:40:24;;;;;;;6.10;5.60;;;;;;;19.28;66.70;102324.75;6092411;23;20278;-76
2022/08/06 07:43:00;;;;;;;7.40;7.00;;;;;;;18.45;66.16;102246.53;6081653;23;21439;-74
2022/08/06 07:45:31;;;;;;;5.70;5.40;;;;;;;18.99;65.36;102310.59;6096180;23;20060;-75
2022/08/06 07:48:21;;;;;;;5.40;5.20;;;;;;;19.27;64.41;102280.44;6097761;23;20025;-76
2022/08/06 07:50:53;;;;;;;7.45;6.78;;;;;;;18.98;63.20;102221.06;6098496;23;20025;-75
2022/08/06 07:53:21;;;;;;;5.60;5.40;;;;;;;19.18;62.53;102338.72;6090313;23;20413;-74
2022/08/06 07:56:09;;;;;;;5.20;5.00;;;;;;;18.97;57.36;102346.25;6078653;23;20021;-75
2022/08/06 07:58:47;;;;;;;5.50;5.30;;;;;;;18.51;59.13;102344.53;6077839;23;20020;-75
2022/08/06 08:01:16;;;;;;;5.18;4.97;;;;;;;18.37;60.03;102344.50;6077839;23;20045;-74
2022/08/06 08:06:53;;;;;;;6.95;6.65;;;;;;;18.43;56.44;102346.78;6098593;23;20453;-74
2022/08/06 08:09:23;;;;;;;5.30;5.10;;;;;;;17.77;57.38;102239.03;6101279;23;20025;-74
2022/08/06 08:11:56;;;;;;;6.57;6.28;;;;;;;18.25;57.22;102344.25;6100470;23;20029;-74
2022/08/06 08:14:45;;;;;;;6.82;6.53;;;;;;;18.37;56.48;102347.16;6092486;23;20395;-73
2022/08/06 08:17:15;;;;;;;5.55;5.25;;;;;;;18.09;53.76;102320.38;6106105;23;20108;-74
2022/08/06 08:19:43;;;;;;;7.03;6.72;;;;;;;18.00;53.75;102299.69;6104064;23;20029;-75
2022/08/06 08:22:17;;;;;;;5.47;5.28;;;;;;;18.31;55.66;102327.09;6103634;23;20124;-74
2022/08/06 08:24:49;;;;;;;5.40;5.20;;;;;;;17.25;53.44;102166.75;6102031;23;20251;-75
2022/08/06 08:27:21;;;;;;;5.32;5.13;;;;;;;18.30;52.34;102352.84;6102277;23;20521;-74
2022/08/06 08:29:52;;;;;;;6.85;6.55;;;;;;;18.33;52.15;102352.63;6091745;23;20030;-75
2022/08/06 08:32:27;;;;;;;5.38;5.18;;;;;;;18.42;53.25;102327.34;6102857;23;20036;-75
2022/08/06 08:34:54;;;;;;;6.45;6.15;;;;;;;18.42;51.23;102297.22;6099631;23;20029;-74
2022/08/06 08:37:23;;;;;;;5.22;5.03;;;;;;;18.71;49.39;102303.44;6104676;23;20083;-73
2022/08/06 08:39:50;;;;;;;6.30;6.00;;;;;;;18.98;49.34;102347.94;6096635;23;20060;-75
2022/08/06 08:42:53;;;;;;;5.43;5.23;;;;;;;18.89;49.36;102296.16;6099240;23;20026;-73
2022/08/06 08:45:22;;;;;;;5.22;5.03;;;;;;;18.79;50.32;102340.22;6095951;23;20108;-73
2022/08/06 08:48:01;;;;;;;5.68;5.47;;;;;;;18.89;49.28;102306.81;6093917;23;20308;-73
2022/08/06 08:50:33;;;;;;;5.30;5.10;;;;;;;19.10;49.02;102344.53;6103666;23;20108;-75
2022/08/06 08:53:07;;;;;;;5.40;5.20;;;;;;;19.20;48.32;102352.78;6099578;23;20423;-76
2022/08/06 08:55:35;;;;;;;5.18;4.97;;;;;;;18.96;49.00;102341.88;6103535;23;20377;-75
2022/08/06 08:58:23;;;;;;;5.10;4.90;;;;;;;19.08;47.96;102293.19;6106176;23;20158;-73
2022/08/06 09:01:10;;;;;;;5.25;5.05;;;;;;;18.99;47.60;102307.94;6101955;23;20029;-74
2022/08/06 09:04:07;;;;;;;5.60;5.40;;;;;;;19.35;48.29;102354.50;6100180;23;20494;-73
2022/08/06 09:06:45;;;;;;;5.30;5.10;;;;;;;19.55;47.92;102337.25;6101162;23;20017;-74
2022/08/06 09:09:17;;;;;;;5.20;5.00;;;;;;;19.31;47.88;102243.84;6100851;23;20060;-74
2022/08/06 09:11:49;;;;;;;6.95;6.65;;;;;;;19.97;47.20;102342.59;6095988;23;20027;-73
2022/08/06 09:14:31;;;;;;;5.43;5.22;;;;;;;19.79;45.47;102355.31;6099385;23;20388;-74
2022/08/06 09:17:00;;;;;;;5.50;5.30;;;;;;;19.90;46.94;102344.78;6100989;23;20029;-74
2022/08/06 09:19:29;;;;;;;5.30;5.10;;;;;;;20.32;46.88;102326.91;6101768;23;20033;-73
2022/08/06 09:22:07;;;;;;;5.85;5.55;;;;;;;20.58;46.82;102337.63;6098584;23;20060;-76
2022/08/06 09:24:35;;;;;;;5.38;5.18;;;;;;;19.60;47.56;102238.41;6100147;23;20652;-74
2022/08/06 09:27:06;;;;;;;5.40;5.20;;;;;;;18.99;46.81;102195.34;6093808;23;20032;-74
2022/08/06 09:29:58;;;;;;;6.85;6.55;;;;;;;19.65;45.52;102268.28;6134614;18;20380;-73
2022/08/06 09:32:45;;;;;;;5.40;5.20;;;;;;;19.73;46.14;102353.91;6091940;23;20014;-75
2022/08/06 09:35:26;;;;;;;5.32;5.13;;;;;;;19.82;46.57;102355.94;6096557;23;20186;-75
2022/08/06 09:38:11;;;;;;;6.07;5.78;;;;;;;19.92;47.25;102357.09;6094075;23;20161;-75
2022/08/06 09:41:06;;;;;;;6.32;6.03;;;;;;;20.03;48.06;102351.03;6106226;23;20108;-75
2022/08/06 09:43:43;;;;;;;5.50;5.28;;;;;;;19.29;46.24;102235.09;6123854;23;20284;-74
2022/08/06 09:46:40;;;;;;;5.38;5.18;;;;;;;20.30;44.67;102358.16;6127945;23;20025;-76
2022/08/06 09:49:08;;;;;;;5.30;5.10;;;;;;;20.07;44.51;102371.19;6127745;23;20080;-75
2022/08/06 09:52:12;;;;;;;5.65;5.45;;;;;;;20.30;45.04;102359.00;6112549;23;20029;-74
2022/08/06 09:54:39;;;;;;;5.45;5.25;;;;;;;19.62;45.85;102209.88;6116425;23;20025;-75
2022/08/06 09:57:06;;;;;;;5.10;4.90;;;;;;;19.95;44.62;102357.84;6117832;23;20036;-75
2022/08/06 09:59:48;;;;;;;5.13;4.93;;;;;;;20.58;45.73;102357.13;6123643;23;20026;-76
2022/08/06 10:02:18;;;;;;;5.15;4.95;;;;;;;20.33;45.47;102284.16;6111380;23;20069;-74
2022/08/06 10:05:09;;;;;;;5.50;5.30;;;;;;;20.46;47.26;102352.63;6104647;23;20092;-74
2022/08/06 10:07:45;;;;;;;6.30;6.00;;;;;;;20.32;48.08;102402.41;6070506;23;20043;-73
2022/08/06 10:10:18;;;;;;;5.15;4.95;;;;;;;20.80;46.38;102358.38;6101944;23;20074;-75
2022/08/06 10:13:17;;;;;;;5.40;5.20;;;;;;;21.48;45.27;102346.47;6124161;23;20108;-74
2022/08/06 10:15:51;;;;;;;5.43;5.22;;;;;;;21.16;42.84;102370.09;6130800;23;20404;-76
2022/08/06 10:18:30;;;;;;;5.10;4.90;;;;;;;21.52;42.13;102351.47;6124009;23;20102;-73
2022/08/06 10:21:18;;;;;;;5.80;5.53;;;;;;;22.11;42.60;102340.00;6126089;23;20088;-75
2022/08/06 10:23:54;;;;;;;6.47;6.18;;;;;;;20.68;41.42;102240.84;6124510;23;20009;-74
2022/08/06 10:26:30;;;;;;;5.25;5.05;;;;;;;21.35;41.24;102365.16;6133404;23;20240;-74
2022/08/06 10:29:05;;;;;;;5.20;5.00;;;;;;;21.11;41.56;102368.63;6122974;23;20065;-76
2022/08/06 10:31:34;;;;;;;5.10;4.90;;;;;;;20.95;41.48;102384.00;6103714;23;20487;-75
2022/08/06 10:34:16;;;;;;;5.20;5.00;;;;;;;21.04;41.28;102378.00;6101700;23;20029;-74
2022/08/06 10:36:44;;;;;;;6.13;5.82;;;;;;;21.26;41.31;102365.81;6087495;23;20405;-75
2022/08/06 10:39:15;;;;;;;6.88;6.57;;;;;;;21.12;42.54;102370.31;6085618;23;20041;-74
2022/08/06 10:42:03;;;;;;;5.40;5.20;;;;;;;20.97;44.63;102381.19;6072258;23;20017;-74
2022/08/06 10:44:45;;;;;;;6.43;6.13;;;;;;;21.55;42.67;102357.56;6095320;23;20084;-74
2022/08/06 10:47:12;;;;;;;5.63;5.43;;;;;;;21.36;42.13;102291.22;6088999;23;20026;-74
2022/08/06 10:50:17;;;;;;;6.60;6.30;;;;;;;21.22;42.52;102367.00;6087884;23;20025;-75
2022/08/06 10:53:05;;;;;;;5.78;5.55;;;;;;;21.77;43.01;102362.19;6084441;23;20014;-74
2022/08/06 10:55:39;;;;;;;6.17;5.90;;;;;;;21.09;40.15;102207.69;6087508;23;20388;-75
2022/08/06 10:58:11;;;;;;;5.47;5.28;;;;;;;21.57;39.92;102315.53;6092808;23;20443;-75
2022/08/06 11:00:41;;;;;;;5.57;5.38;;;;;;;21.24;41.83;102360.56;6090399;23;20025;-75
2022/08/06 11:03:47;;;;;;;5.50;5.30;;;;;;;21.58;40.78;102334.13;6084768;23;20272;-73
2022/08/06 11:06:30;;;;;;;5.55;5.35;;;;;;;22.05;40.34;102347.63;6092778;23;20013;-76
2022/08/06 11:09:31;;;;;;;6.13;5.82;;;;;;;22.18;39.10;102353.75;6089602;23;20028;-75
2022/08/06 11:12:31;;;;;;;5.60;5.40;;;;;;;22.17;39.29;102352.06;6089776;23;20088;-75
2022/08/06 11:15:01;;;;;;;5.85;5.57;;;;;;;22.63;39.57;102347.72;6109773;23;20420;-75
2022/08/06 11:18:05;;;;;;;5.32;5.13;;;;;;;21.54;40.63;102348.69;6084969;23;20017;-76
2022/08/06 11:20:32;;;;;;;5.35;5.15;;;;;;;22.23;39.29;102348.06;6022066;23;20033;-75
2022/08/06 11:23:01;;;;;;;5.30;5.10;;;;;;;22.39;38.73;102355.81;6088028;23;20415;-74
2022/08/06 11:25:43;;;;;;;5.40;5.20;;;;;;;22.15;40.57;102346.00;6090051;23;20030;-74
2022/08/06 11:28:14;;;;;;;5.38;5.18;;;;;;;21.50;39.54;102193.13;6082638;23;20341;-75
2022/08/06 11:30:46;;;;;;;6.07;5.80;;;;;;;22.14;38.97;102300.66;6109313;23;20394;-74
2022/08/06 11:33:41;;;;;;;6.07;5.45;;;;;;;22.14;40.11;102340.75;6116449;23;20070;-73
2022/08/06 11:36:23;;;;;;;5.20;5.00;;;;;;;21.84;40.25;102316.19;6117803;23;20094;-74
2022/08/06 11:38:52;;;;;;;6.22;5.93;;;;;;;22.45;39.94;102337.50;6088155;23;20053;-74
2022/08/06 11:41:32;;;;;;;5.47;5.28;;;;;;;22.48;39.65;102341.75;6106686;23;20308;-76
2022/08/06 11:44:21;;;;;;;5.38;5.18;;;;;;;22.48;39.03;102337.22;6124757;23;20009;-74
2022/08/06 11:47:12;;;;;;;6.75;6.45;;;;;;;22.99;37.34;102324.41;6099289;23;20059;-74
2022/08/06 11:49:44;;;;;;;5.75;5.50;;;;;;;23.03;36.92;102337.47;6113362;23;20690;-73
2022/08/06 11:52:30;;;;;;;5.45;5.25;;;;;;;23.53;37.31;102318.28;6095266;23;20089;-74
2022/08/06 11:55:07;;;;;;;5.57;5.38;;;;;;;23.68;36.37;102318.88;6124159;23;20022;-74
2022/08/06 11:57:40;;;;;;;5.85;5.53;;;;;;;22.73;36.57;102182.78;6118506;23;20679;-75
2022/08/06 12:00:18;;;;;;;5.47;5.28;;;;;;;22.95;36.74;102331.81;6093665;23;20032;-73
2022/08/06 12:02:52;;;;;;;6.45;6.15;;;;;;;22.55;37.69;102340.31;6085319;23;20018;-75
2022/08/06 12:05:22;;;;;;;5.40;5.20;;;;;;;22.14;37.37;102349.63;6114363;23;20084;-75
2022/08/06 12:08:24;;;;;;;6.70;6.40;;;;;;;22.30;38.73;102339.50;6115762;23;20022;-74
2022/08/06 12:11:33;;;;;;;5.40;5.20;;;;;;;21.79;37.26;102301.44;6062027;23;20025;-73
2022/08/06 12:14:03;;;;;;;5.60;5.40;;;;;;;20.60;38.51;102216.53;6117755;23;20043;-75
2022/08/06 12:16:50;;;;;;;6.70;6.40;;;;;;;21.40;38.11;102357.66;6103867;23;20017;-75
2022/08/06 12:19:20;;;;;;;5.30;5.10;;;;;;;20.96;38.58;102267.41;6116787;23;20087;-73
2022/08/06 12:21:53;;;;;;;6.63;6.32;;;;;;;21.34;38.40;102326.06;6109893;23;20018;-75
2022/08/06 12:24:25;;;;;;;5.40;5.20;;;;;;;21.43;37.51;102272.03;6110372;23;20458;-74